Kerrik, Illinois
Current Conditions -  °F | °C
As of 6:56 PM on Monday 20 Oct 2014 (Local Time) from KBMI Reporting Station
Clear Clear  
Wind Chill: 58°   Ceiling: Unl
Heat Index: 58°   Visibility: 10mi
Dew Point: 45°   Wind: 7mph
Humidity: 62%   Direction: 320°NW
Pressure: 29.97"   Gusts: NA
Location:  40.4766°N, 88.992°W
Report Text: KBMI 202356Z 32006KT 10SM CLR 14/07 A2997 RMK AO2 51018 T01440072 10194 20138 SLP149
Loading
Personal Weather Stations






























Interactive Weather Map
Tropical Storm Tracking
New forecast layout! Learn more

10-Day Weather Forecast

Advertisements
Track Severe Weather on mobile